Time;durP1;ratioP1;P1;durP2;ratioP2;P2;SDS_P1;SDS_P2;PMS_P1;PMS_P2;Temp;Humidity;BMP_temperature;BMP_pressure;BME280_temperature;BME280_humidity;BME280_pressure;Samples;Min_cycle;Max_cycle;Signal;HPM_P1;HPM_P2
2022/04/16 00:01:24;;;;;;;;;;;12.90;66.10;;;;;;6149505;23;19920;-82
2022/04/16 00:03:51;;;;;;;;;;;12.80;65.70;;;;;;6124864;23;19932;-82
2022/04/16 00:06:18;;;;;;;;;;;12.80;66.20;;;;;;6127855;23;19924;-82
2022/04/16 00:08:44;;;;;;;;;;;12.80;65.40;;;;;;6125829;23;19936;-81
2022/04/16 00:11:11;;;;;;;;;;;12.80;65.90;;;;;;6125908;23;19916;-80
2022/04/16 00:13:38;;;;;;;;;;;12.80;67.00;;;;;;6126412;23;19920;-82
2022/04/16 00:16:05;;;;;;;;;;;12.70;65.90;;;;;;6124889;23;20435;-82
2022/04/16 00:18:32;;;;;;;;;;;12.60;66.50;;;;;;6127599;23;19967;-80
2022/04/16 00:21:00;;;;;;;;;;;12.70;65.50;;;;;;6125336;23;19917;-82
2022/04/16 00:23:27;;;;;;;;;;;12.70;66.20;;;;;;6126351;23;19983;-80
2022/04/16 00:25:55;;;;;;;;;;;12.60;66.20;;;;;;6126193;23;20339;-82
2022/04/16 00:28:22;;;;;;;;;;;12.40;68.40;;;;;;6126937;23;20401;-82
2022/04/16 00:30:48;;;;;;;;;;;12.40;67.60;;;;;;6125869;23;19917;-80
2022/04/16 00:33:18;;;;;;;;;;;12.40;67.50;;;;;;6126833;23;19927;-80
2022/04/16 00:35:45;;;;;;;;;;;12.40;66.90;;;;;;6126427;23;20360;-80
2022/04/16 00:38:12;;;;;;;;;;;12.50;67.60;;;;;;6126638;23;19917;-80
2022/04/16 00:40:39;;;;;;;;;;;12.50;67.40;;;;;;6127716;23;20342;-80
2022/04/16 00:43:06;;;;;;;;;;;12.40;67.50;;;;;;6123009;23;19925;-81
2022/04/16 00:45:34;;;;;;;;;;;12.30;67.50;;;;;;6125349;23;19924;-82
2022/04/16 00:48:01;;;;;;;;;;;12.30;67.40;;;;;;6124306;23;19948;-82
2022/04/16 00:50:27;;;;;;;;;;;12.30;68.50;;;;;;6125765;23;19972;-80
2022/04/16 00:52:54;;;;;;;;;;;12.20;68.90;;;;;;6125547;23;19920;-82
2022/04/16 00:55:22;;;;;;;;;;;12.10;67.90;;;;;;6128191;23;19917;-82
2022/04/16 00:57:48;;;;;;;;;;;12.10;67.60;;;;;;6126536;23;19916;-80
2022/04/16 01:00:15;;;;;;;;;;;12.20;67.10;;;;;;6125624;23;20436;-80
2022/04/16 01:02:42;;;;;;;;;;;12.20;67.10;;;;;;6127627;23;19921;-80
2022/04/16 01:05:12;;;;;;;;;;;12.20;67.10;;;;;;6125073;23;19917;-80
2022/04/16 01:07:56;;;;;;;;;;;12.20;67.40;;;;;;6127310;23;20258;-81
2022/04/16 01:10:27;;;;;;;;;;;12.20;67.10;;;;;;6126025;23;19917;-80
2022/04/16 01:12:54;;;;;;;;;;;12.20;67.60;;;;;;6126644;23;19916;-82
2022/04/16 01:15:21;;;;;;;;;;;12.20;67.70;;;;;;6125846;23;20345;-82
2022/04/16 01:17:48;;;;;;;;;;;12.20;68.10;;;;;;6126939;23;19937;-81
2022/04/16 01:20:16;;;;;;;;;;;12.20;68.20;;;;;;6126182;23;20346;-80
2022/04/16 01:22:50;;;;;;;;;;;12.10;67.70;;;;;;6125989;23;19924;-80
2022/04/16 01:25:17;;;;;;;;;;;12.10;67.80;;;;;;6125379;23;19928;-80
2022/04/16 01:27:45;;;;;;;;;;;12.10;67.80;;;;;;6125762;23;19967;-80
2022/04/16 01:30:13;;;;;;;;;;;12.00;67.90;;;;;;6125592;23;19917;-81
2022/04/16 01:32:42;;;;;;;;;;;11.90;68.80;;;;;;6126475;23;19920;-79
2022/04/16 01:35:10;;;;;;;;;;;11.80;70.40;;;;;;6126622;23;19944;-81
2022/04/16 01:37:37;;;;;;;;;;;11.70;68.90;;;;;;6125320;23;20266;-79
2022/04/16 01:40:05;;;;;;;;;;;11.70;70.40;;;;;;6127047;23;19916;-79
2022/04/16 01:42:32;;;;;;;;;;;11.60;70.50;;;;;;6128997;23;19917;-79
2022/04/16 01:45:02;;;;;;;;;;;11.60;70.80;;;;;;6125077;23;19917;-79
2022/04/16 01:47:30;;;;;;;;;;;11.50;70.30;;;;;;6126454;23;19936;-79
2022/04/16 01:49:57;;;;;;;;;;;11.50;71.30;;;;;;6124733;23;19925;-81
2022/04/16 01:52:24;;;;;;;;;;;11.40;71.50;;;;;;6125102;23;19917;-81
2022/04/16 01:54:51;;;;;;;;;;;11.40;71.30;;;;;;6126246;23;20396;-79
2022/04/16 01:57:18;;;;;;;;;;;11.40;71.20;;;;;;6124725;23;19917;-79
2022/04/16 01:59:48;;;;;;;;;;;11.30;72.00;;;;;;6124710;23;19925;-80
2022/04/16 02:02:16;;;;;;;;;;;11.30;72.00;;;;;;6124634;23;19917;-81
2022/04/16 02:04:43;;;;;;;;;;;11.40;73.00;;;;;;6124966;23;19924;-79
2022/04/16 02:07:10;;;;;;;;;;;11.30;71.50;;;;;;6123983;23;19917;-79
2022/04/16 02:09:37;;;;;;;;;;;11.30;71.80;;;;;;6124802;23;19925;-81
2022/04/16 02:12:04;;;;;;;;;;;11.30;72.00;;;;;;6125032;23;19916;-79
2022/04/16 02:14:31;;;;;;;;;;;11.20;73.60;;;;;;6123258;23;19988;-79
2022/04/16 02:16:58;;;;;;;;;;;11.00;72.80;;;;;;6125127;23;19917;-78
2022/04/16 02:19:25;;;;;;;;;;;11.00;72.70;;;;;;6123225;23;19921;-80
2022/04/16 02:21:52;;;;;;;;;;;11.00;72.60;;;;;;6125160;23;19917;-79
2022/04/16 02:24:19;;;;;;;;;;;11.10;73.60;;;;;;6124166;23;19917;-79
2022/04/16 02:26:46;;;;;;;;;;;11.00;74.40;;;;;;6124488;23;19921;-81
2022/04/16 02:29:13;;;;;;;;;;;11.10;72.70;;;;;;6122876;23;19936;-81
2022/04/16 02:31:39;;;;;;;;;;;11.10;74.30;;;;;;6125125;23;19928;-79
2022/04/16 02:34:07;;;;;;;;;;;11.10;74.00;;;;;;6124265;23;19925;-81
2022/04/16 02:36:34;;;;;;;;;;;11.10;74.70;;;;;;6123221;23;20706;-80
2022/04/16 02:39:01;;;;;;;;;;;11.10;73.20;;;;;;6124591;23;19916;-81
2022/04/16 02:41:27;;;;;;;;;;;11.00;74.50;;;;;;6123192;23;19916;-81
2022/04/16 02:43:54;;;;;;;;;;;11.00;74.00;;;;;;6124634;23;19941;-79
2022/04/16 02:49:07;;;;;;;;;;;10.80;74.50;;;;;;6126160;23;19992;-80
2022/04/16 02:51:34;;;;;;;;;;;10.80;74.30;;;;;;6124463;23;20353;-80
2022/04/16 02:54:01;;;;;;;;;;;10.70;74.00;;;;;;6124926;23;19917;-79
2022/04/16 02:56:28;;;;;;;;;;;10.70;74.90;;;;;;6123176;23;19964;-79
2022/04/16 02:58:54;;;;;;;;;;;10.60;74.70;;;;;;6125485;23;19917;-81
2022/04/16 03:01:21;;;;;;;;;;;10.70;74.30;;;;;;6148994;23;19924;-78
2022/04/16 03:03:48;;;;;;;;;;;10.60;74.60;;;;;;6123663;23;20310;-78
2022/04/16 03:06:15;;;;;;;;;;;10.60;75.40;;;;;;6123499;23;19917;-80
2022/04/16 03:08:41;;;;;;;;;;;10.60;74.80;;;;;;6123897;23;19976;-81
2022/04/16 03:11:08;;;;;;;;;;;10.70;74.70;;;;;;6124595;23;20361;-81
2022/04/16 03:13:35;;;;;;;;;;;10.70;74.30;;;;;;6123627;23;19918;-78
2022/04/16 03:18:47;;;;;;;;;;;10.60;75.10;;;;;;6124537;23;19921;-79
2022/04/16 03:21:14;;;;;;;;;;;10.60;75.00;;;;;;6123983;23;19917;-81
2022/04/16 03:23:41;;;;;;;;;;;10.60;75.10;;;;;;6124021;23;19967;-80
2022/04/16 03:26:08;;;;;;;;;;;10.60;74.60;;;;;;6125993;23;20281;-80
2022/04/16 03:28:36;;;;;;;;;;;10.60;74.50;;;;;;6124257;23;19917;-79
2022/04/16 03:31:04;;;;;;;;;;;10.60;74.60;;;;;;6124659;23;19917;-80
2022/04/16 03:33:31;;;;;;;;;;;10.60;74.50;;;;;;6122681;23;19976;-81
2022/04/16 03:35:58;;;;;;;;;;;10.50;75.00;;;;;;6125048;23;19968;-80
2022/04/16 03:38:25;;;;;;;;;;;10.40;75.50;;;;;;6123369;23;19960;-79
2022/04/16 03:40:52;;;;;;;;;;;10.40;75.60;;;;;;6125586;23;19971;-79
2022/04/16 03:43:29;;;;;;;;;;;10.40;75.50;;;;;;6127217;23;19964;-79
2022/04/16 03:45:56;;;;;;;;;;;10.40;74.80;;;;;;6127056;23;19967;-78
2022/04/16 03:48:23;;;;;;;;;;;10.40;73.60;;;;;;6125782;23;19917;-80
2022/04/16 03:50:50;;;;;;;;;;;10.40;72.70;;;;;;6124967;23;19949;-80
2022/04/16 03:53:17;;;;;;;;;;;10.50;71.80;;;;;;6125614;23;19924;-80
2022/04/16 04:01:15;;;;;;;;;;;10.80;70.10;;;;;;6126664;23;19920;-81
2022/04/16 04:03:42;;;;;;;;;;;10.80;70.10;;;;;;6149510;23;19995;-78
2022/04/16 04:06:09;;;;;;;;;;;10.90;70.30;;;;;;6125831;23;19917;-80
2022/04/16 04:08:36;;;;;;;;;;;10.90;70.40;;;;;;6127795;23;19925;-79
2022/04/16 04:11:03;;;;;;;;;;;10.80;70.20;;;;;;6125054;23;19917;-79
2022/04/16 04:13:31;;;;;;;;;;;10.80;70.40;;;;;;6127789;23;20330;-81
2022/04/16 04:15:57;;;;;;;;;;;10.80;70.80;;;;;;6123748;23;20326;-81
2022/04/16 04:18:26;;;;;;;;;;;10.80;70.80;;;;;;6127172;23;20299;-78
2022/04/16 04:20:54;;;;;;;;;;;10.80;71.00;;;;;;6126375;23;19948;-79
2022/04/16 04:23:22;;;;;;;;;;;10.80;72.30;;;;;;6127268;23;19928;-80
2022/04/16 04:25:49;;;;;;;;;;;10.80;71.90;;;;;;6125652;23;19924;-80
2022/04/16 04:28:17;;;;;;;;;;;10.80;72.10;;;;;;6125308;23;19966;-81
2022/04/16 04:30:43;;;;;;;;;;;10.70;73.30;;;;;;6125323;23;19916;-81
2022/04/16 04:33:10;;;;;;;;;;;10.70;73.30;;;;;;6124989;23;19968;-79
2022/04/16 04:35:37;;;;;;;;;;;10.70;72.20;;;;;;6125482;23;20338;-81
2022/04/16 04:38:03;;;;;;;;;;;10.70;73.00;;;;;;6125636;23;19917;-79
2022/04/16 04:40:30;;;;;;;;;;;10.60;73.10;;;;;;6125756;23;19967;-81
2022/04/16 04:42:57;;;;;;;;;;;10.60;72.40;;;;;;6124217;23;20255;-81
2022/04/16 04:45:24;;;;;;;;;;;10.60;73.10;;;;;;6125145;23;19917;-80
2022/04/16 04:47:50;;;;;;;;;;;10.50;73.80;;;;;;6126316;23;20250;-79
2022/04/16 04:50:17;;;;;;;;;;;10.40;73.80;;;;;;6125591;23;19976;-78
2022/04/16 04:52:44;;;;;;;;;;;10.40;73.80;;;;;;6125414;23;20286;-79
2022/04/16 04:55:11;;;;;;;;;;;10.30;74.30;;;;;;6126450;23;20253;-79
2022/04/16 04:57:39;;;;;;;;;;;10.20;76.50;;;;;;6126082;23;19924;-81
2022/04/16 05:00:07;;;;;;;;;;;10.20;76.50;;;;;;6125243;23;20223;-78
2022/04/16 05:02:38;;;;;;;;;;;10.20;76.30;;;;;;6125988;23;19916;-79
2022/04/16 05:05:05;;;;;;;;;;;10.10;78.00;;;;;;6124975;23;19960;-79
2022/04/16 05:07:32;;;;;;;;;;;10.10;78.30;;;;;;6124656;23;19921;-79
2022/04/16 05:09:58;;;;;;;;;;;10.10;76.80;;;;;;6124567;23;20364;-81
2022/04/16 05:12:25;;;;;;;;;;;10.00;78.90;;;;;;6125879;23;19924;-79
2022/04/16 05:14:52;;;;;;;;;;;10.00;77.90;;;;;;6126633;23;19921;-79
2022/04/16 05:17:18;;;;;;;;;;;10.10;77.20;;;;;;6124581;23;19917;-79
2022/04/16 05:19:45;;;;;;;;;;;10.10;77.80;;;;;;6127094;23;20401;-81
2022/04/16 05:22:12;;;;;;;;;;;10.10;77.90;;;;;;6124383;23;19928;-81
2022/04/16 05:24:39;;;;;;;;;;;10.20;77.80;;;;;;6116535;23;19941;-81
2022/04/16 05:27:05;;;;;;;;;;;10.10;77.40;;;;;;6119604;23;20329;-80
2022/04/16 05:29:48;;;;;;;;;;;10.20;77.40;;;;;;6124861;23;19923;-82
2022/04/16 05:32:16;;;;;;;;;;;10.10;77.00;;;;;;6125137;23;19922;-80
2022/04/16 05:34:43;;;;;;;;;;;10.00;78.40;;;;;;6124801;23;19944;-81
2022/04/16 05:37:09;;;;;;;;;;;10.10;77.80;;;;;;6123746;23;19916;-81
2022/04/16 05:39:38;;;;;;;;;;;10.10;78.00;;;;;;6123199;23;19917;-81
2022/04/16 05:42:05;;;;;;;;;;;10.20;78.50;;;;;;6125077;23;20250;-81
2022/04/16 05:44:31;;;;;;;;;;;10.20;78.60;;;;;;6125676;23;19921;-80
2022/04/16 05:46:59;;;;;;;;;;;10.30;77.80;;;;;;6124795;23;19917;-82
2022/04/16 05:49:26;;;;;;;;;;;10.40;79.50;;;;;;6122422;23;19988;-81
2022/04/16 05:51:58;;;;;;;;;;;10.50;78.10;;;;;;6125906;23;19927;-80
2022/04/16 05:54:25;;;;;;;;;;;10.60;78.40;;;;;;6124224;23;19940;-79
2022/04/16 05:56:52;;;;;;;;;;;10.60;77.60;;;;;;6125199;23;19920;-81
2022/04/16 05:59:18;;;;;;;;;;;10.70;77.40;;;;;;6122766;23;19948;-80
2022/04/16 06:01:45;;;;;;;;;;;10.80;76.90;;;;;;6124738;23;20334;-81
2022/04/16 06:04:15;;;;;;;;;;;10.90;76.20;;;;;;6123158;23;19916;-79
2022/04/16 06:06:41;;;;;;;;;;;10.90;75.50;;;;;;6124456;23;19967;-79
2022/04/16 06:09:08;;;;;;;;;;;11.00;76.10;;;;;;6123488;23;20219;-80
2022/04/16 06:11:36;;;;;;;;;;;11.10;76.80;;;;;;6125336;23;19920;-81
2022/04/16 06:14:03;;;;;;;;;;;11.20;76.40;;;;;;6124524;23;19943;-80
2022/04/16 06:16:30;;;;;;;;;;;11.20;76.50;;;;;;6124967;23;20349;-81
2022/04/16 06:18:58;;;;;;;;;;;11.30;75.70;;;;;;6123519;23;19940;-81
2022/04/16 06:21:24;;;;;;;;;;;11.40;76.20;;;;;;6123899;23;19917;-80
2022/04/16 06:23:53;;;;;;;;;;;11.40;77.10;;;;;;6123815;23;19921;-81
2022/04/16 06:26:19;;;;;;;;;;;11.50;76.70;;;;;;6123190;23;19916;-81
2022/04/16 06:28:46;;;;;;;;;;;11.50;76.00;;;;;;6124907;23;19964;-80
2022/04/16 06:31:13;;;;;;;;;;;11.60;75.70;;;;;;6123531;23;20342;-82
2022/04/16 06:33:45;;;;;;;;;;;11.70;75.30;;;;;;6123548;23;19924;-82
2022/04/16 06:36:12;;;;;;;;;;;11.80;77.90;;;;;;6125603;23;19925;-79
2022/04/16 06:38:38;;;;;;;;;;;12.00;76.10;;;;;;6125576;23;19921;-80
2022/04/16 06:41:05;;;;;;;;;;;12.10;75.60;;;;;;6124966;23;19970;-81
2022/04/16 06:43:32;;;;;;;;;;;12.30;76.90;;;;;;6124418;23;19984;-82
2022/04/16 06:45:58;;;;;;;;;;;12.40;75.60;;;;;;6121953;23;19939;-81
2022/04/16 06:48:25;;;;;;;;;;;12.60;73.70;;;;;;6124238;23;19917;-82
2022/04/16 06:50:52;;;;;;;;;;;12.80;72.80;;;;;;6124751;23;19921;-82
2022/04/16 06:53:19;;;;;;;;;;;12.90;70.70;;;;;;6123573;23;19987;-79
2022/04/16 06:55:46;;;;;;;;;;;13.10;70.70;;;;;;6125052;23;19917;-81
2022/04/16 06:58:12;;;;;;;;;;;13.30;71.70;;;;;;6124758;23;20361;-78
2022/04/16 07:00:39;;;;;;;;;;;13.40;70.70;;;;;;6124729;23;19921;-79
2022/04/16 07:03:07;;;;;;;;;;;13.50;70.60;;;;;;6126801;23;20110;-81
2022/04/16 07:05:34;;;;;;;;;;;13.60;70.20;;;;;;6124404;23;19944;-80
2022/04/16 07:08:01;;;;;;;;;;;13.80;71.50;;;;;;6124625;23;19917;-78
2022/04/16 07:10:27;;;;;;;;;;;13.90;71.80;;;;;;6124376;23;19987;-81
2022/04/16 07:12:54;;;;;;;;;;;14.00;70.70;;;;;;6124899;23;19976;-81
2022/04/16 07:15:21;;;;;;;;;;;14.00;70.50;;;;;;6124787;23;19983;-78
2022/04/16 07:17:48;;;;;;;;;;;14.10;69.60;;;;;;6126620;23;20304;-82
2022/04/16 07:20:17;;;;;;;;;;;14.30;68.20;;;;;;6125116;23;19916;-82
2022/04/16 07:22:44;;;;;;;;;;;14.40;67.50;;;;;;6130069;23;19965;-80
2022/04/16 07:25:11;;;;;;;;;;;14.60;66.80;;;;;;6127138;23;19950;-78
2022/04/16 07:27:37;;;;;;;;;;;14.70;65.70;;;;;;6128016;23;19964;-80
2022/04/16 07:30:04;;;;;;;;;;;14.80;64.30;;;;;;6128801;23;19917;-80
2022/04/16 07:32:31;;;;;;;;;;;15.00;63.90;;;;;;6127062;23;20302;-78
2022/04/16 07:34:58;;;;;;;;;;;15.20;63.80;;;;;;6127649;23;19916;-78
2022/04/16 07:37:25;;;;;;;;;;;15.40;62.80;;;;;;6127773;23;19972;-77
2022/04/16 07:39:51;;;;;;;;;;;15.60;61.50;;;;;;6129523;23;19991;-80
2022/04/16 07:42:18;;;;;;;;;;;15.80;60.00;;;;;;6113368;23;20338;-79
2022/04/16 07:44:45;;;;;;;;;;;16.00;58.40;;;;;;6129888;23;19941;-79
2022/04/16 07:47:12;;;;;;;;;;;16.30;57.90;;;;;;6128724;23;20401;-81
2022/04/16 07:49:39;;;;;;;;;;;16.50;58.20;;;;;;6126467;23;20761;-83
2022/04/16 07:52:05;;;;;;;;;;;16.90;59.80;;;;;;6124334;23;19920;-79
2022/04/16 07:54:32;;;;;;;;;;;17.20;56.50;;;;;;6125711;23;20393;-82
2022/04/16 07:56:59;;;;;;;;;;;17.40;56.10;;;;;;6124821;23;19964;-81
2022/04/16 07:59:28;;;;;;;;;;;17.60;55.60;;;;;;6123013;23;20072;-80
2022/04/16 08:01:55;;;;;;;;;;;17.80;52.30;;;;;;6120865;23;19967;-79
2022/04/16 08:04:22;;;;;;;8.88;5.03;;;17.90;53.90;;;;;;6123649;23;19959;-79
2022/04/16 08:06:48;;;;;;;;;;;18.20;53.80;;;;;;6124896;23;20041;-82
2022/04/16 08:09:15;;;;;;;;;;;18.40;54.00;;;;;;6124929;23;19917;-80
2022/04/16 08:11:43;;;;;;;;;;;18.50;51.80;;;;;;6125097;23;19917;-80
2022/04/16 08:14:10;;;;;;;;;;;18.40;50.30;;;;;;6124784;23;19916;-81
2022/04/16 08:16:36;;;;;;;;;;;18.50;50.90;;;;;;6124104;23;19917;-81
2022/04/16 08:19:03;;;;;;;;;;;18.60;52.20;;;;;;6126828;23;19999;-79
2022/04/16 08:21:32;;;;;;;;;;;18.90;51.00;;;;;;6123759;23;19917;-81
2022/04/16 08:24:13;;;;;;;;;;;19.10;51.50;;;;;;6125674;23;19920;-81
2022/04/16 08:26:40;;;;;;;14.98;7.82;;;19.30;49.90;;;;;;6125841;23;19920;-79
2022/04/16 08:29:08;;;;;;;14.15;8.40;;;19.50;49.60;;;;;;6124924;23;20030;-82
2022/04/16 08:31:35;;;;;;;20.52;11.75;;;19.60;49.80;;;;;;6124038;23;20455;-82
2022/04/16 08:34:02;;;;;;;18.90;11.27;;;19.80;48.60;;;;;;6123813;23;20026;-82
2022/04/16 08:36:29;;;;;;;19.20;12.07;;;19.90;48.10;;;;;;6123588;23;20104;-81
2022/04/16 08:38:55;;;;;;;20.20;12.40;;;20.10;47.00;;;;;;6124673;23;20033;-82
2022/04/16 08:41:25;;;;;;;22.58;12.02;;;20.10;46.90;;;;;;6123893;23;20411;-79
2022/04/16 08:43:53;;;;;;;19.90;10.82;;;20.20;46.50;;;;;;6125608;23;20100;-79
2022/04/16 08:46:21;;;;;;;17.30;9.07;;;20.30;46.60;;;;;;6123129;23;20034;-81
2022/04/16 08:48:49;;;;;;;18.77;10.63;;;20.50;44.70;;;;;;6124439;23;20049;-79
2022/04/16 08:51:16;;;;;;;18.60;10.57;;;20.60;44.60;;;;;;6127001;23;20026;-81
2022/04/16 08:53:43;;;;;;;20.70;11.45;;;20.70;43.50;;;;;;6124242;23;20029;-79
2022/04/16 08:56:10;;;;;;;19.05;10.35;;;20.80;42.60;;;;;;6126804;23;20081;-79
2022/04/16 08:58:38;;;;;;;20.25;12.95;;;20.90;43.50;;;;;;6123820;23;20443;-81
2022/04/16 09:01:07;;;;;;;18.30;11.85;;;21.00;41.30;;;;;;6126160;23;20431;-79
2022/04/16 09:03:35;;;;;;;19.00;11.85;;;20.80;42.00;;;;;;6124780;23;20403;-79
2022/04/16 09:06:03;;;;;;;19.02;12.02;;;20.90;42.20;;;;;;6124805;23;20753;-82
2022/04/16 09:08:32;;;;;;;22.83;12.30;;;21.10;42.00;;;;;;6124999;23;20913;-82
2022/04/16 09:11:25;;;;;;;20.30;12.27;;;21.00;41.10;;;;;;6123419;23;20372;-80
2022/04/16 09:13:53;;;;;;;19.48;12.02;;;21.00;42.10;;;;;;6120529;23;20443;-82
2022/04/16 09:16:21;;;;;;;19.73;11.83;;;21.30;42.00;;;;;;6124122;23;20430;-83
2022/04/16 09:18:55;;;;;;;19.77;12.13;;;21.40;42.40;;;;;;6124947;23;20376;-82
2022/04/16 09:21:27;;;;;;;19.95;12.02;;;21.50;41.50;;;;;;6123366;23;20387;-83
2022/04/16 09:23:59;;;;;;;18.50;11.45;;;21.60;41.90;;;;;;6121836;23;20459;-83
2022/04/16 09:26:39;;;;;;;22.10;12.55;;;21.70;39.80;;;;;;6121978;23;20426;-83
2022/04/16 09:29:10;;;;;;;20.00;11.80;;;21.60;40.60;;;;;;6123438;23;20891;-83
2022/04/16 09:31:39;;;;;;;21.88;13.15;;;21.60;41.70;;;;;;6122278;23;20396;-83
2022/04/16 09:34:15;;;;;;;24.27;13.10;;;21.90;40.90;;;;;;6125292;23;20376;-82
2022/04/16 09:36:44;;;;;;;23.65;12.70;;;21.80;40.30;;;;;;6124850;23;20388;-83
2022/04/16 09:39:11;;;;;;;24.17;14.70;;;22.00;41.70;;;;;;6125294;23;20839;-81
2022/04/16 09:41:41;;;;;;;21.60;14.20;;;21.90;40.50;;;;;;6126153;23;20415;-81
2022/04/16 09:44:22;;;;;;;20.20;12.57;;;21.70;41.40;;;;;;6098120;23;20371;-81
2022/04/16 09:46:53;;;;;;;22.02;13.55;;;22.00;42.80;;;;;;6126315;23;20447;-81
2022/04/16 09:49:21;;;;;;;20.13;13.37;;;21.80;40.80;;;;;;6125662;23;20375;-79
2022/04/16 09:51:49;;;;;;;22.27;13.40;;;22.00;40.70;;;;;;6123472;23;20388;-82
2022/04/16 09:54:18;;;;;;;22.77;14.32;;;22.00;39.60;;;;;;6128976;23;20372;-79
2022/04/16 09:56:47;;;;;;;21.20;13.13;;;21.90;40.00;;;;;;6124622;23;20380;-79
2022/04/16 09:59:16;;;;;;;22.80;13.90;;;21.90;41.20;;;;;;6123837;23;20423;-81
2022/04/16 10:01:47;;;;;;;21.73;12.57;;;22.20;40.00;;;;;;6123130;23;20394;-80
2022/04/16 10:04:16;;;;;;;20.98;12.73;;;22.40;39.60;;;;;;6122040;23;20379;-83
2022/04/16 10:06:44;;;;;;;23.55;13.13;;;22.30;40.00;;;;;;6122878;23;20395;-79
2022/04/16 10:09:22;;;;;;;24.02;13.75;;;22.70;38.80;;;;;;6121654;23;20359;-80
2022/04/16 10:14:56;;;;;;;26.42;15.32;;;23.10;37.60;;;;;;6122605;23;20442;-80
2022/04/16 10:17:42;;;;;;;26.98;16.58;;;22.80;37.40;;;;;;6125244;23;20388;-82
2022/04/16 10:20:11;;;;;;;25.70;14.95;;;22.80;37.80;;;;;;6123865;23;20383;-84
2022/04/16 10:22:39;;;;;;;21.80;13.63;;;23.00;37.60;;;;;;6122932;23;20529;-80
2022/04/16 10:25:06;;;;;;;26.58;14.52;;;23.20;37.60;;;;;;6123276;23;20379;-80
2022/04/16 10:27:43;;;;;;;25.37;14.97;;;23.20;36.00;;;;;;6122151;23;20864;-80
2022/04/16 10:30:15;;;;;;;23.67;13.98;;;23.30;38.10;;;;;;6121351;23;20422;-80
2022/04/16 10:32:45;;;;;;;24.03;13.70;;;23.60;37.30;;;;;;6122645;23;20445;-83
2022/04/16 10:35:15;;;;;;;25.83;14.63;;;24.00;35.40;;;;;;6122702;23;20442;-82
2022/04/16 10:37:48;;;;;;;24.30;14.27;;;23.80;35.40;;;;;;6109842;23;20376;-83
2022/04/16 10:40:23;;;;;;;22.85;13.73;;;23.90;36.40;;;;;;6123366;23;20387;-82
2022/04/16 10:42:52;;;;;;;31.55;14.38;;;24.20;35.90;;;;;;6121322;23;20379;-85
2022/04/16 10:45:20;;;;;;;23.70;14.35;;;24.50;35.90;;;;;;6122398;23;20413;-78
2022/04/16 10:47:51;;;;;;;26.50;14.10;;;24.80;34.40;;;;;;6122041;23;20374;-80
2022/04/16 10:50:20;;;;;;;132.53;21.93;;;24.50;33.30;;;;;;6120826;23;20467;-80
2022/04/16 10:52:53;;;;;;;33.70;14.20;;;24.30;33.40;;;;;;6145322;23;20371;-81
2022/04/16 10:55:22;;;;;;;25.38;13.68;;;24.40;32.50;;;;;;6121003;23;20438;-80
2022/04/16 10:58:00;;;;;;;22.13;12.07;;;24.10;31.00;;;;;;6121881;23;20372;-80
2022/04/16 11:00:37;;;;;;;28.08;13.70;;;24.10;32.40;;;;;;6120712;23;20372;-77
2022/04/16 11:03:28;;;;;;;21.60;12.90;;;24.20;33.60;;;;;;6122103;23;20380;-81
2022/04/16 11:06:05;;;;;;;23.13;12.65;;;24.30;33.40;;;;;;6120764;23;20375;-81
2022/04/16 11:08:34;;;;;;;18.50;10.77;;;24.70;37.30;;;;;;6120962;23;20395;-80
2022/04/16 11:11:06;;;;;;;18.17;11.00;;;24.40;37.70;;;;;;6122439;23;20856;-84
2022/04/16 11:13:38;;;;;;;15.73;10.23;;;23.90;35.00;;;;;;6098430;23;20379;-80
2022/04/16 11:16:09;;;;;;;20.13;10.60;;;23.40;35.70;;;;;;6121660;23;20466;-83
2022/04/16 11:18:43;;;;;;;17.65;10.82;;;23.30;36.80;;;;;;6121915;23;20411;-83
2022/04/16 11:21:14;;;;;;;17.42;10.45;;;23.40;39.70;;;;;;6121990;23;20430;-81
2022/04/16 11:23:46;;;;;;;17.50;10.43;;;23.60;35.00;;;;;;6121231;23;20439;-80
2022/04/16 11:34:36;;;;;;;17.67;9.30;;;23.70;31.70;;;;;;6123349;23;20427;-79
2022/04/16 11:37:29;;;;;;;23.95;10.57;;;23.80;31.80;;;;;;6121622;23;20422;-79
2022/04/16 11:40:02;;;;;;;17.67;10.10;;;23.90;32.20;;;;;;6121211;23;20399;-82
2022/04/16 11:42:30;;;;;;;15.15;8.77;;;23.80;33.60;;;;;;6122611;23;20875;-79
2022/04/16 11:44:57;;;;;;;15.32;9.05;;;24.10;30.50;;;;;;6121281;23;20733;-80
2022/04/16 11:47:27;;;;;;;19.15;9.00;;;24.20;34.00;;;;;;6121188;23;20419;-79
2022/04/16 11:50:00;;;;;;;14.67;8.57;;;24.40;32.60;;;;;;6120856;23;20376;-81
2022/04/16 11:52:29;;;;;;;14.95;9.05;;;24.60;33.20;;;;;;6121790;23;20447;-80
2022/04/16 11:55:15;;;;;;;16.50;9.85;;;24.80;31.10;;;;;;6120480;23;20379;-79
2022/04/16 11:57:52;;;;;;;14.57;8.88;;;24.40;31.60;;;;;;6120884;23;20392;-81
2022/04/16 12:00:20;;;;;;;15.90;8.25;;;24.60;32.90;;;;;;6121587;23;20387;-81
2022/04/16 12:02:55;;;;;;;15.57;9.98;;;24.60;30.30;;;;;;6147279;23;20379;-79
2022/04/16 12:05:27;;;;;;;16.13;10.00;;;24.60;32.10;;;;;;6123964;23;20712;-80
2022/04/16 12:07:54;;;;;;;17.70;10.13;;;24.50;33.20;;;;;;6123439;23;20386;-79
2022/04/16 12:10:23;;;;;;;12.85;8.07;;;24.80;32.30;;;;;;6122131;23;20439;-80
2022/04/16 12:12:53;;;;;;;15.43;8.30;;;25.20;34.10;;;;;;6123084;23;20384;-82
2022/04/16 12:15:28;;;;;;;16.48;9.38;;;25.10;31.60;;;;;;6121708;23;20375;-81
2022/04/16 12:17:56;;;;;;;13.65;9.23;;;25.50;29.80;;;;;;6124039;23;20402;-79
2022/04/16 12:20:25;;;;;;;14.57;8.27;;;25.60;31.00;;;;;;6122223;23;20386;-82
2022/04/16 12:22:54;;;;;;;13.32;8.93;;;25.40;29.80;;;;;;6125702;23;20383;-79
2022/04/16 12:25:28;;;;;;;16.15;9.50;;;25.30;29.80;;;;;;6123931;23;20388;-80
2022/04/16 12:27:57;;;;;;;14.38;9.05;;;25.30;30.90;;;;;;6123747;23;20368;-81
2022/04/16 12:30:31;;;;;;;14.80;9.03;;;25.10;29.60;;;;;;6120545;23;20387;-79
2022/04/16 12:33:04;;;;;;;16.40;9.77;;;25.30;30.00;;;;;;6123794;23;20383;-80
2022/04/16 12:35:35;;;;;;;14.48;8.75;;;25.30;30.20;;;;;;6122780;23;20748;-80
2022/04/16 12:38:04;;;;;;;14.65;8.65;;;25.60;30.80;;;;;;6121745;23;20463;-79
2022/04/16 12:40:33;;;;;;;15.95;9.02;;;25.90;30.10;;;;;;6123069;23;20376;-79
2022/04/16 12:43:01;;;;;;;14.23;8.23;;;26.20;31.70;;;;;;6121885;23;20380;-80
2022/04/16 12:45:30;;;;;;;13.55;8.75;;;26.00;30.50;;;;;;6119667;23;20387;-79
2022/04/16 12:47:57;;;;;;;15.88;8.70;;;26.30;30.40;;;;;;6121238;23;20403;-81
2022/04/16 12:50:26;;;;;;;15.52;9.48;;;26.40;30.70;;;;;;6122102;23;20388;-81
2022/04/16 12:52:53;;;;;;;16.07;9.23;;;26.40;29.40;;;;;;6122757;23;20844;-79
2022/04/16 12:55:20;;;;;;;17.07;8.97;;;26.00;29.40;;;;;;6121288;23;20399;-79
2022/04/16 12:57:48;;;;;;;15.40;9.53;;;26.00;30.30;;;;;;6133495;23;21269;-80
2022/04/16 13:00:16;;;;;;;15.20;10.18;;;26.20;29.40;;;;;;6121669;23;20872;-79
2022/04/16 13:02:45;;;;;;;15.50;9.13;;;25.70;29.50;;;;;;6145721;23;20387;-79
2022/04/16 13:05:14;;;;;;;13.40;9.57;;;26.00;30.60;;;;;;6123114;23;20383;-79
2022/04/16 13:07:41;;;;;;;14.18;8.63;;;25.80;29.20;;;;;;6121307;23;20429;-81
2022/04/16 13:10:09;;;;;;;15.40;9.55;;;26.20;32.30;;;;;;6097499;23;20371;-80
2022/04/16 13:12:37;;;;;;;18.60;9.15;;;26.60;30.00;;;;;;6120811;23;20431;-80
2022/04/16 13:15:09;;;;;;;13.48;8.55;;;26.60;29.40;;;;;;6123818;23;20379;-79
2022/04/16 13:17:36;;;;;;;14.82;9.15;;;26.50;29.60;;;;;;6122410;23;20911;-80
2022/04/16 13:20:04;;;;;;;15.75;9.43;;;26.70;29.50;;;;;;6124304;23;20372;-79
2022/04/16 13:22:31;;;;;;;13.63;8.75;;;26.70;28.90;;;;;;6121147;23;20387;-79
2022/04/16 13:24:58;;;;;;;15.07;9.50;;;26.80;30.20;;;;;;6125456;23;20375;-81
2022/04/16 13:27:26;;;;;;;14.20;8.73;;;26.60;29.20;;;;;;6124396;23;20765;-81
2022/04/16 13:29:53;;;;;;;14.70;8.63;;;26.70;29.20;;;;;;6127002;23;20977;-82
2022/04/16 13:32:24;;;;;;;13.05;8.18;;;26.80;28.90;;;;;;6124063;23;20387;-81
2022/04/16 13:34:51;;;;;;;14.85;8.27;;;26.70;28.80;;;;;;6124928;23;20747;-80
2022/04/16 13:37:18;;;;;;;13.97;7.83;;;26.90;29.70;;;;;;6124190;23;20391;-80
2022/04/16 13:42:31;;;;;;;12.60;7.63;;;26.00;27.60;;;;;;6124155;23;20388;-81
2022/04/16 13:44:58;;;;;;;14.85;6.95;;;26.20;29.10;;;;;;6123006;23;20849;-81
2022/04/16 13:47:25;;;;;;;10.93;7.18;;;26.40;28.50;;;;;;6123433;23;20442;-80
2022/04/16 13:49:52;;;;;;;9.45;5.50;;;26.50;27.70;;;;;;6122374;23;20749;-80
2022/04/16 13:52:19;;;;;;;9.40;5.53;;;26.40;27.90;;;;;;6124283;23;20379;-80
2022/04/16 13:54:46;;;;;;;10.15;5.95;;;26.30;28.00;;;;;;6124184;23;20376;-81
2022/04/16 13:57:13;;;;;;;9.25;6.18;;;26.50;28.00;;;;;;6124367;23;20380;-80
2022/04/16 13:59:40;;;;;;;11.00;5.53;;;26.40;27.60;;;;;;6122740;23;20438;-80
2022/04/16 14:02:10;;;;;;;9.60;5.73;;;26.80;28.10;;;;;;6151170;23;20915;-81
2022/04/16 14:07:22;;;;;;;9.48;6.55;;;26.50;28.70;;;;;;6125351;23;20384;-80